Aix Les Milles, France

10:00 PM CEST on August 26, 2016 (GMT +0200)
Chemin du Serre | | Change Station

Elev 452 ft 43.50 °N, 5.39 °E | Updated 8 minutes ago

Clear
Clear
79.9 °F
Feels Like 81 °F
N
2.5
Wind Variable Wind from NNW
Gusts 11.8 mph

Today
High -- | Low -- °F
--% Chance of Precip.
Yesterday
High -- | Low -- °F
Precip. -- in
Pressure 30.06 in
Visibility -9999.0 miles
Clouds
Heat Index 81 °F
Dew Point 61 °F
Humidity 52%
Rainfall Not available.
Snow Depth Not available.
6:55 AM 8:23 PM
Waning Crescent, 31% visible
METAR LFML 261930Z AUTO 16003KT CAVOK 26/17 Q1018 NOSIG
Pressure 30.06 in
Visibility -9999.0 miles
Clouds
Heat Index 81 °F
Dew Point 61 °F
Humidity 52%
Rainfall Not available.
Snow Depth Not available.
6:55 AM 8:23 PM
Waning Crescent, 31% visible
METAR LFML 261930Z AUTO 16003KT CAVOK 26/17 Q1018 NOSIG

10-Day Weather Forecast

×

Almanac

Astronomy

Aug. 26, 2016 Rise Set
Actual Time
Civil Twilight
Nautical Twilight
Astronomical Twilight
Moon
Length of Visible Light
Length of Day
Tomorrow will be .
, % of the Moon is Illuminated

Today's Extremes

Country Highs Country Lows

Community

WunderPhotos

Upload Photos

1,935,195 photos uploaded!

WunderBlog® & News

Nearby

Air Quality

  Air Quality AQ Index Pollutant
Not available.

Snow Depth

Station Depth Elevation

Earthquake Activity

City Distance Mag. Time & Date
Minimum magnitude displayed is 2.5.

Coastal Water Temperatures

Place Temperature

Stations

Nearby Weather Stations

Station Location Temp. Windchill Dew Point Humidity Wind Precip. Elev Updated Type